Home > Products > Valid Products > TAF

000
FTUS45 KPSR 281800 AAA
TAFBLH
TAF AMD
KBLH 281828Z 2818/0118 23015G25KT P6SM FEW060 SCT150
      TEMPO 2819/2822 23020G30KT
     FM010300 22014KT P6SM SCT080 BKN100
     FM011200 VRB06KT P6SM SCT060 OVC100=



000
FTUS45 KPSR 281700
TAFIWA
TAF
KIWA 281740Z 2818/0118 18012KT P6SM BKN060 BKN100
     FM282100 23012G20KT P6SM VCSH SCT060 BKN100
      TEMPO 2821/2824 24012G20KT -SHRA BKN060
     FM010100 20008KT P6SM BKN060 OVC100
     FM010600 14006KT P6SM FEW030 BKN050 OVC080 PROB30 0112/0118
      -SHRA BKN040=



000
FTUS45 KPSR 281700
TAFIPL
TAF
KIPL 281740Z 2818/0118 26022G32KT P6SM SCT060 SCT120
      TEMPO 2818/2820 26015KT
     FM010300 26013G20KT P6SM SCT080 BKN100
     FM011100 VRB06KT P6SM VCSH BKN060 OVC100 PROB30 0112/0118 -SHRA
      BKN050=



000
FTUS45 KPSR 281700
TAFIWA
TAF
KIWA 281740Z 2818/0118 18012KT P6SM BKN060 BKN100
     FM282100 23012G20KT P6SM VCSH SCT060 BKN100
      TEMPO 2821/2824 24012G20KT -SHRA BKN060
     FM010100 20008KT P6SM BKN060 OVC100
     FM010600 14006KT P6SM FEW030 BKN050 OVC080 PROB30 0112/0118
      -SHRA BKN040=



000
FTUS45 KPSR 281700
TAFBLH
TAF
KBLH 281740Z 2818/0118 22015KT P6SM SCT150
     FM282100 22020G30KT P6SM SCT120
     FM010300 22014KT P6SM SCT080 BKN100
     FM011200 VRB06KT P6SM SCT060 OVC100=



000
FTUS45 KPSR 281700
TAFPHX
TAF
KPHX 281740Z 2818/0118 18011KT P6SM SCT050 BKN100
     FM282000 22012KT P6SM VCSH SCT060 BKN100
      TEMPO 2820/2824 24012G20KT -SHRA BKN060
     FM010100 20008KT P6SM BKN060 OVC100
     FM010600 14006KT P6SM FEW030 BKN050 OVC080 PROB30 0112/0118
      -SHRA BKN040=



000
FTUS45 KPSR 281500 AAA
TAFIWA
TAF AMD
KIWA 281511Z 2815/0112 18009KT P6SM BKN050 BKN100
      TEMPO 2816/2818 -SHRA BKN040
     FM281900 21012G20KT P6SM SCT050 BKN100
     FM010100 19009KT P6SM BKN060 OVC100
     FM010900 15006KT P6SM FEW030 BKN050 OVC080=



000
FTUS45 KPSR 281500 AAA
TAFIWA
TAF AMD
KIWA 281511Z 2815/0112 18009KT P6SM BKN050 BKN100
      TEMPO 2816/2818 -SHRA BKN040
     FM281900 21012G20KT P6SM SCT050 BKN100
     FM010100 19009KT P6SM BKN060 OVC100
     FM010900 15006KT P6SM FEW030 BKN050 OVC080=



000
FTUS45 KPSR 281500 AAA
TAFIWA
TAF AMD
KIWA 281511Z 2815/0112 18009KT P6SM BKN050 BKN100
      TEMPO 2816/2818 -SHRA BKN040
     FM281900 21012G20KT P6SM SCT050 BKN100
     FM010100 19009KT P6SM BKN060 OVC100
     FM010900 15006KT P6SM FEW030 BKN050 OVC080=



000
FTUS45 KPSR 281500 AAA
TAFIWA
TAF AMD
KIWA 281511Z 2815/0112 18009KT P6SM BKN050 BKN100
      TEMPO 2816/2818 -SHRA BKN040
     FM281900 21012G20KT P6SM SCT050 BKN100
     FM010100 19009KT P6SM BKN060 OVC100
     FM010900 15006KT P6SM FEW030 BKN050 OVC080=



000
FTUS45 KPSR 281500 AAB
TAFPHX
TAF AMD
KPHX 281509Z 2815/0112 16007KT P6SM VCSH BKN050 BKN100
      TEMPO 2815/2818 -SHRA BKN040
     FM281900 22012KT P6SM SCT050 BKN100
      TEMPO 2820/2824 24012G20KT
     FM010100 20008KT P6SM BKN060 OVC100
     FM010900 14006KT P6SM FEW030 BKN050 OVC080=



000
FTUS45 KPSR 281500 AAB
TAFPHX
TAF AMD
KPHX 281509Z 2815/0112 16007KT P6SM VCSH BKN050 BKN100
      TEMPO 2815/2818 -SHRA BKN040
     FM281900 22012KT P6SM SCT050 BKN100
      TEMPO 2820/2824 24012G20KT
     FM010100 20008KT P6SM BKN060 OVC100
     FM010900 14006KT P6SM FEW030 BKN050 OVC080=



000
FTUS45 KPSR 281300 AAA
TAFPHX
TAF AMD
KPHX 281314Z 2813/0112 14007KT P6SM BKN050 BKN150
     FM281900 24012G20KT P6SM SCT060 BKN120
     FM010100 20008KT P6SM BKN060 OVC100
     FM010900 14006KT P6SM FEW030 BKN050 OVC080=



000
FTUS45 KPSR 281300 AAA
TAFPHX
TAF AMD
KPHX 281314Z 2813/0112 14007KT P6SM BKN050 BKN150
     FM281900 24012G20KT P6SM SCT060 BKN120
     FM010100 20008KT P6SM BKN060 OVC100
     FM010900 14006KT P6SM FEW030 BKN050 OVC080=



000
FTUS45 KPSR 281100
TAFIWA
TAF
KIWA 281120Z 2812/0112 15009KT P6SM SCT060 BKN150
     FM281800 21012G20KT P6SM SCT070 BKN120
     FM010100 19009KT P6SM BKN060 OVC100
     FM010900 15006KT P6SM FEW030 BKN050 OVC080
      AMD LTD TO CLD VIS AND WIND TIL 281300=



000
FTUS45 KPSR 281100
TAFIPL
TAF
KIPL 281120Z 2812/0112 26015G25KT P6SM FEW070 SCT150
     FM281800 26022G32KT P6SM FEW080 SCT120
     FM010300 26013G20KT P6SM SCT080 BKN100
     FM010900 27008KT P6SM SCT060 OVC100=



000
FTUS45 KPSR 281100
TAFPHX
TAF
KPHX 281120Z 2812/0112 14007KT P6SM SCT060 BKN150
     FM282000 24012G20KT P6SM SCT070 BKN120
     FM010100 20008KT P6SM BKN060 OVC100
     FM010900 14006KT P6SM FEW030 BKN050 OVC080=



000
FTUS45 KPSR 281100
TAFBLH
TAF
KBLH 281120Z 2812/0112 22007KT P6SM SCT150
     FM281700 22020G30KT P6SM SCT120
     FM010300 22014KT P6SM SCT080 BKN100
     FM010900 23007KT P6SM SCT060 OVC100=



000
FTUS45 KPSR 281100
TAFIWA
TAF
KIWA 281120Z 2812/0112 15009KT P6SM SCT060 BKN150
     FM281800 21012G20KT P6SM SCT070 BKN120
     FM010100 19009KT P6SM BKN060 OVC100
     FM010900 15006KT P6SM FEW030 BKN050 OVC080
      AMD LTD TO CLD VIS AND WIND TIL 281300=



000
FTUS45 KPSR 280800 AAA
TAFPHX
TAF AMD
KPHX 280856Z 2809/0106 15007KT P6SM SCT080 BKN200
     FM281200 16011KT P6SM SCT060 BKN150
     FM282000 24012G20KT P6SM SCT070 BKN100
     FM010300 20008KT P6SM BKN060 OVC100=



000
FTUS45 KPSR 280800 AAA
TAFBLH
TAF AMD
KBLH 280812Z 2808/0106 22012KT P6SM FEW070 BKN150
     FM281600 22020G30KT P6SM SCT050 OVC100
     FM010300 22014KT P6SM BKN050 OVC100=



000
FTUS45 KPSR 280800 AAA
TAFIPL
TAF AMD
KIPL 280809Z 2808/0106 26013G22KT P6SM FEW120 BKN250
     FM281200 26015G25KT P6SM FEW050 BKN150
     FM281800 26020G30KT P6SM BKN050 OVC120
     FM010300 26015G25KT P6SM SCT050 OVC100=



000
FTUS45 KPSR 280500
TAFIWA
TAF
KIWA 280521Z 2806/0106 20006KT P6SM FEW150 SCT250
     FM280800 16010KT P6SM FEW150 BKN250
     FM281100 14012KT P6SM SCT060 BKN150
     FM282100 24015G25KT P6SM FEW060 BKN100
     FM010300 20010KT P6SM SCT060 OVC100
      AMD LTD TO CLD VIS AND WIND TIL 281300=



000
FTUS45 KPSR 280500
TAFPHX
TAF
KPHX 280521Z 2806/0106 21008KT P6SM FEW150 BKN250
     FM280800 16010KT P6SM FEW150 BKN250
     FM281200 12015KT P6SM SCT060 BKN150
     FM282100 26015G25KT P6SM FEW060 BKN100
     FM010300 25010KT P6SM SCT060 OVC100=



000
FTUS45 KPSR 280500
TAFBLH
TAF
KBLH 280521Z 2806/0106 24015G22KT P6SM FEW070 BKN150
     FM281800 24025G35KT P6SM SCT050 OVC100
     FM010300 24018G28KT P6SM BKN050 OVC100=



000
FTUS45 KPSR 280500
TAFIPL
TAF
KIPL 280521Z 2806/0106 26020G28KT P6SM FEW120 BKN250
     FM281200 26020G30KT P6SM FEW050 BKN150
     FM281800 26025G35KT P6SM BKN050 OVC120
     FM010300 26015G25KT P6SM SCT050 OVC100=



000
FTUS45 KPSR 280500
TAFIWA
TAF
KIWA 280521Z 2806/0106 20006KT P6SM FEW150 SCT250
     FM280800 16010KT P6SM FEW150 BKN250
     FM281100 14012KT P6SM SCT060 BKN150
     FM282100 24015G25KT P6SM FEW060 BKN100
     FM010300 20010KT P6SM SCT060 OVC100
      AMD LTD TO CLD VIS AND WIND TIL 281300=



000
FTUS45 KPSR 280500
TAFIWA
TAF
KIWA 280521Z 2806/0106 20006KT P6SM FEW150 SCT250
     FM280800 16010KT P6SM FEW150 BKN250
     FM281100 14012KT P6SM SCT060 BKN150
     FM282100 24015G25KT P6SM FEW060 BKN100
     FM010300 20010KT P6SM SCT060 OVC100
      AMD LTD TO CLD VIS AND WIND TIL 281300=



000
FTUS45 KPSR 280500
TAFPHX
TAF
KPHX 280521Z 2806/0106 21008KT P6SM FEW150 BKN250
     FM280800 16010KT P6SM FEW150 BKN250
     FM281200 12015KT P6SM SCT060 BKN150
     FM282100 26015G25KT P6SM FEW060 BKN100
     FM010300 25010KT P6SM SCT060 OVC100=



000
FTUS45 KPSR 280500
TAFBLH
TAF
KBLH 280521Z 2806/0106 24015G22KT P6SM FEW070 BKN150
     FM281800 24025G35KT P6SM SCT050 OVC100
     FM010300 24018G28KT P6SM BKN050 OVC100=



000
FTUS45 KPSR 280500
TAFIPL
TAF
KIPL 280521Z 2806/0106 26020G28KT P6SM FEW120 BKN250
     FM281200 26020G30KT P6SM FEW050 BKN150
     FM281800 26025G35KT P6SM BKN050 OVC120
     FM010300 26015G25KT P6SM SCT050 OVC100=



000
FTUS45 KPSR 280500
TAFIWA
TAF
KIWA 280521Z 2806/0106 20006KT P6SM FEW150 SCT250
     FM280800 16010KT P6SM FEW150 BKN250
     FM281100 14012KT P6SM SCT060 BKN150
     FM282100 24015G25KT P6SM FEW060 BKN100
     FM010300 20010KT P6SM SCT060 OVC100
      AMD LTD TO CLD VIS AND WIND TIL 281300=



000
FTUS45 KPSR 280200 AAA
TAFIPL
TAF AMD
KIPL 280257Z 2803/2824 26020G28KT P6SM FEW120 BKN250
     FM280700 26020G30KT P6SM FEW050 BKN150
     FM281800 26025G35KT P6SM BKN050 OVC100=



000
FTUS45 KPSR 280200 AAA
TAFIWA
TAF AMD
KIWA 280257Z 2803/2824 23006KT P6SM FEW150 SCT250
     FM280400 12010KT P6SM FEW150 BKN250
     FM281100 14011KT P6SM SCT060 BKN150
     FM282100 24015G25KT P6SM FEW060 BKN100
      AMD LTD TO CLD VIS AND WIND 2803/2813=



000
FTUS45 KPSR 280200 AAA
TAFIPL
TAF AMD
KIPL 280257Z 2803/2824 26020G28KT P6SM FEW120 BKN250
     FM280700 26020G30KT P6SM FEW050 BKN150
     FM281800 26025G35KT P6SM BKN050 OVC100=



000
FTUS45 KPSR 280200 AAA
TAFIWA
TAF AMD
KIWA 280257Z 2803/2824 23006KT P6SM FEW150 SCT250
     FM280400 12010KT P6SM FEW150 BKN250
     FM281100 14011KT P6SM SCT060 BKN150
     FM282100 24015G25KT P6SM FEW060 BKN100
      AMD LTD TO CLD VIS AND WIND 2803/2813=



000
FTUS45 KPSR 280200 AAA
TAFIWA
TAF AMD
KIWA 280257Z 2803/2824 23006KT P6SM FEW150 SCT250
     FM280400 12010KT P6SM FEW150 BKN250
     FM281100 14011KT P6SM SCT060 BKN150
     FM282100 24015G25KT P6SM FEW060 BKN100
      AMD LTD TO CLD VIS AND WIND 2803/2813=



000
FTUS45 KPSR 280200 AAA
TAFPHX
TAF AMD
KPHX 280249Z 2803/2824 23010KT P6SM FEW150 BKN250
     FM280500 11010KT P6SM FEW150 BKN250
     FM281200 12014KT P6SM SCT060 BKN150
     FM282100 26015G25KT P6SM FEW060 BKN100=



000
FTUS45 KPSR 280200 AAA
TAFPHX
TAF AMD
KPHX 280249Z 2803/2824 23010KT P6SM FEW150 BKN250
     FM280500 11010KT P6SM FEW150 BKN250
     FM281200 12014KT P6SM SCT060 BKN150
     FM282100 26015G25KT P6SM FEW060 BKN100=



000
FTUS45 KPSR 272300
TAFIPL
TAF
KIPL 272335Z 2800/2824 25015G25KT P6SM FEW120 BKN250
     FM280700 26020G30KT P6SM FEW050 BKN150
     FM281800 26025G35KT P6SM BKN050 OVC100=



000
FTUS45 KPSR 272300
TAFBLH
TAF
KBLH 272335Z 2800/2824 21009KT P6SM SCT250
     FM280600 24014G22KT P6SM FEW070 BKN150
     FM281800 24025G35KT P6SM SCT050 OVC100=



000
FTUS45 KPSR 272300
TAFIWA
TAF
KIWA 272335Z 2800/2824 26012KT P6SM FEW150 SCT250
      TEMPO 2800/2802 26012G22KT
     FM280400 12010KT P6SM FEW150 BKN250
     FM281100 14011KT P6SM SCT060 BKN150
     FM282100 24015G25KT P6SM FEW060 BKN100
      AMD LTD TO CLD VIS AND WIND 2803/2813=



000
FTUS45 KPSR 272300
TAFPHX
TAF
KPHX 272335Z 2800/2824 26012KT P6SM FEW150 SCT250
      TEMPO 2800/2802 26012G22KT
     FM280500 11010KT P6SM FEW150 BKN250
     FM281200 12014KT P6SM SCT060 BKN150
     FM282100 26015G25KT P6SM FEW060 BKN100=



000
FTUS45 KPSR 272300
TAFIWA
TAF
KIWA 272335Z 2800/2824 26012KT P6SM FEW150 SCT250
      TEMPO 2800/2802 26012G22KT
     FM280400 12010KT P6SM FEW150 BKN250
     FM281100 14011KT P6SM SCT060 BKN150
     FM282100 24015G25KT P6SM FEW060 BKN100
      AMD LTD TO CLD VIS AND WIND 2803/2813=



000
FTUS45 KPSR 272000 AAC
TAFPHX
TAF AMD
KPHX 272040Z 2721/2818 25010KT P6SM FEW150 SCT250
     FM280500 11010KT P6SM FEW150 BKN250
     FM281200 12014KT P6SM SCT060 BKN150=



000
FTUS45 KPSR 272000 AAC
TAFPHX
TAF AMD
KPHX 272040Z 2721/2818 25010KT P6SM FEW150 SCT250
     FM280500 11010KT P6SM FEW150 BKN250
     FM281200 12014KT P6SM SCT060 BKN150=



000
FTUS45 KPSR 272000 AAB
TAFPHX
TAF AMD
KPHX 272023Z 2720/2818 19012KT P6SM FEW150 SCT250
     FM272200 25010KT P6SM FEW150 SCT250
     FM280500 11010KT P6SM FEW150 BKN250
     FM281200 12014KT P6SM SCT060 BKN150=



000
FTUS45 KPSR 272000 AAB
TAFPHX
TAF AMD
KPHX 272023Z 2720/2818 19012KT P6SM FEW150 SCT250
     FM272200 25010KT P6SM FEW150 SCT250
     FM280500 11010KT P6SM FEW150 BKN250
     FM281200 12014KT P6SM SCT060 BKN150=



000
FTUS45 KPSR 271900 AAA
TAFPHX
TAF AMD
KPHX 271925Z 2719/2818 16010KT P6SM FEW150 SCT250
     FM272100 25010KT P6SM FEW150 SCT250
     FM280500 11010KT P6SM FEW150 BKN250
     FM281200 12014KT P6SM SCT060 BKN150=



000
FTUS45 KPSR 271900 AAA
TAFPHX
TAF AMD
KPHX 271925Z 2719/2818 16010KT P6SM FEW150 SCT250
     FM272100 25010KT P6SM FEW150 SCT250
     FM280500 11010KT P6SM FEW150 BKN250
     FM281200 12014KT P6SM SCT060 BKN150=



000
FTUS45 KPSR 271700
TAFIWA
TAF
KIWA 271720Z 2718/2818 15008KT P6SM FEW150 SCT250
     FM272100 23010KT P6SM FEW150 SCT250
     FM280400 12010KT P6SM FEW150 BKN250
     FM281100 14011KT P6SM SCT060 BKN150=



000
FTUS45 KPSR 271700
TAFBLH
TAF
KBLH 271720Z 2718/2818 21009KT P6SM SCT250
     FM280600 24014G22KT P6SM FEW070 BKN150=



000
FTUS45 KPSR 271700
TAFIPL
TAF
KIPL 271720Z 2718/2818 VRB04KT P6SM FEW250
     FM272100 26012KT P6SM SCT250
     FM280100 25015G23KT P6SM FEW120 BKN250
     FM280700 26018G26KT P6SM FEW080 BKN150=



000
FTUS45 KPSR 271700
TAFPHX
TAF
KPHX 271720Z 2718/2818 15009KT P6SM FEW150 SCT250
     FM272100 25010KT P6SM FEW150 SCT250
     FM280500 11010KT P6SM FEW150 BKN250
     FM281200 12014KT P6SM SCT060 BKN150=



000
FTUS45 KPSR 271700
TAFIWA
TAF
KIWA 271720Z 2718/2818 15008KT P6SM FEW150 SCT250
     FM272100 23010KT P6SM FEW150 SCT250
     FM280400 12010KT P6SM FEW150 BKN250
     FM281100 14011KT P6SM SCT060 BKN150=



000
FTUS45 KPSR 271400 AAA
TAFPHX
TAF AMD
KPHX 271434Z 2715/2812 10007KT P6SM FEW250
     FM272100 25010KT P6SM FEW200 SCT250
     FM280500 11010KT P6SM FEW150 BKN250
     FM281100 12011KT P6SM SCT060 BKN150=



000
FTUS45 KPSR 271400 AAA
TAFPHX
TAF AMD
KPHX 271434Z 2715/2812 10007KT P6SM FEW250
     FM272100 25010KT P6SM FEW200 SCT250
     FM280500 11010KT P6SM FEW150 BKN250
     FM281100 12011KT P6SM SCT060 BKN150=



000
FTUS45 KPSR 271100
TAFBLH
TAF
KBLH 271122Z 2712/2812 34005KT P6SM FEW250
     FM271900 19009KT P6SM SCT250
     FM280600 21014G22KT P6SM FEW070 BKN150=



000
FTUS45 KPSR 271100
TAFIWA
TAF
KIWA 271122Z 2712/2812 13008KT P6SM FEW250
     FM272100 25010KT P6SM FEW200 SCT250
     FM280400 12010KT P6SM FEW150 BKN250
     FM281100 14011KT P6SM SCT060 BKN150
      AMD LTD TO CLD VIS AND WIND TIL 271300=



000
FTUS45 KPSR 271100
TAFPHX
TAF
KPHX 271122Z 2712/2812 10007KT P6SM FEW250
     FM272100 25010KT P6SM FEW200 SCT250
     FM280500 11010KT P6SM FEW150 BKN250
     FM281100 12011KT P6SM SCT060 BKN150=



000
FTUS45 KPSR 271100
TAFIPL
TAF
KIPL 271122Z 2712/2812 VRB04KT P6SM FEW250
     FM272100 26010KT P6SM SCT250
     FM280100 25015G23KT P6SM FEW120 BKN250
     FM280700 26018G26KT P6SM FEW080 BKN150=



000
FTUS45 KPSR 271100
TAFIWA
TAF
KIWA 271122Z 2712/2812 13008KT P6SM FEW250
     FM272100 25010KT P6SM FEW200 SCT250
     FM280400 12010KT P6SM FEW150 BKN250
     FM281100 14011KT P6SM SCT060 BKN150
      AMD LTD TO CLD VIS AND WIND TIL 271300=



000
FTUS45 KPSR 270900 AAA
TAFPHX
TAF AMD
KPHX 270901Z 2709/2806 10007KT P6SM FEW250
     FM272100 27010KT P6SM SCT250
     FM280400 11008KT P6SM BKN250=



000
FTUS45 KPSR 270500
TAFIWA
TAF
KIWA 270521Z 2706/2806 11008KT P6SM FEW250
     FM272100 25008KT P6SM SCT250
     FM280400 12007KT P6SM BKN250
      AMD LTD TO CLD VIS AND WIND TIL 271300=



000
FTUS45 KPSR 270500
TAFIWA
TAF
KIWA 270521Z 2706/2806 11008KT P6SM FEW250
     FM272100 25008KT P6SM SCT250
     FM280400 12007KT P6SM BKN250
      AMD LTD TO CLD VIS AND WIND TIL 271300=



000
FTUS45 KPSR 270500
TAFPHX
TAF
KPHX 270521Z 2706/2806 10007KT P6SM FEW250
     FM272100 27010KT P6SM SCT250
     FM280400 11008KT P6SM BKN250=



000
FTUS45 KPSR 270500
TAFIPL
TAF
KIPL 270521Z 2706/2806 26005KT P6SM FEW250
     FM271200 VRB03KT P6SM FEW250
     FM272100 26006KT P6SM SCT250
     FM280300 25015KT P6SM FEW100 BKN250=



000
FTUS45 KPSR 270500
TAFBLH
TAF
KBLH 270521Z 2706/2806 21005KT P6SM FEW250
     FM271000 29005KT P6SM FEW250
     FM272100 19007KT P6SM SCT250
     FM280300 18012KT P6SM BKN250=



000
FTUS45 KPSR 270500
TAFIPL
TAF
KIPL 270521Z 2706/2806 26005KT P6SM FEW250
     FM271200 VRB03KT P6SM FEW250
     FM272100 26006KT P6SM SCT250
     FM280300 25015KT P6SM FEW100 BKN250=



000
FTUS45 KPSR 270500
TAFBLH
TAF
KBLH 270521Z 2706/2806 21005KT P6SM FEW250
     FM271000 29005KT P6SM FEW250
     FM272100 19007KT P6SM SCT250
     FM280300 18012KT P6SM BKN250=



000
FTUS45 KPSR 270500
TAFIWA
TAF
KIWA 270521Z 2706/2806 11008KT P6SM FEW250
     FM272100 25008KT P6SM SCT250
     FM280400 12007KT P6SM BKN250
      AMD LTD TO CLD VIS AND WIND TIL 271300=



000
FTUS45 KPSR 270200 AAA
TAFPHX
TAF AMD
KPHX 270230Z 2703/2724 30006KT P6SM SCT200
     FM270400 10007KT P6SM FEW250
     FM272100 27007KT P6SM SCT250=



000
FTUS45 KPSR 262300
TAFPHX
TAF
KPHX 262325Z 2700/2724 28008KT P6SM SCT200
     FM270400 10007KT P6SM FEW250
     FM272100 27007KT P6SM SCT250=



000
FTUS45 KPSR 262300
TAFIWA
TAF
KIWA 262325Z 2700/2724 27007KT P6SM SCT200
     FM270300 11008KT P6SM FEW250
     FM272100 25008KT P6SM SCT250
      AMD LTD TO CLD VIS AND WIND 2703/2713=



000
FTUS45 KPSR 262300
TAFBLH
TAF
KBLH 262325Z 2700/2724 21005KT P6SM FEW250
     FM271000 29005KT P6SM FEW250
     FM272100 19007KT P6SM SCT250=



000
FTUS45 KPSR 262300
TAFIPL
TAF
KIPL 262325Z 2700/2724 11005KT P6SM FEW250
     FM270200 26005KT P6SM FEW250
     FM271200 VRB03KT P6SM FEW250
     FM272100 15006KT P6SM SCT250=



000
FTUS45 KPSR 262300
TAFIWA
TAF
KIWA 262325Z 2700/2724 27007KT P6SM SCT200
     FM270300 11008KT P6SM FEW250
     FM272100 25008KT P6SM SCT250
      AMD LTD TO CLD VIS AND WIND 2703/2713=



000
FTUS45 KPSR 261700
TAFIPL
TAF
KIPL 261722Z 2618/2718 11005KT P6SM FEW250
     FM270200 26005KT P6SM FEW250=



000
FTUS45 KPSR 261700
TAFPHX
TAF
KPHX 261722Z 2618/2718 11007KT P6SM FEW250
     FM262200 28006KT P6SM SCT200
     FM270500 09007KT P6SM FEW250=



000
FTUS45 KPSR 261700
TAFBLH
TAF
KBLH 261722Z 2618/2718 VRB04KT P6SM FEW250
     FM262100 21005KT P6SM FEW250
     FM271000 29005KT P6SM FEW250=



000
FTUS45 KPSR 261700
TAFIWA
TAF
KIWA 261722Z 2618/2718 12006KT P6SM FEW250
     FM262100 27007KT P6SM SCT200
     FM270400 11008KT P6SM FEW250=



000
FTUS45 KPSR 261700
TAFIWA
TAF
KIWA 261722Z 2618/2718 12006KT P6SM FEW250
     FM262100 27007KT P6SM SCT200
     FM270400 11008KT P6SM FEW250=



000
FTUS45 KPSR 261700
TAFIWA
TAF
KIWA 261722Z 2618/2718 12006KT P6SM FEW250
     FM262100 27007KT P6SM SCT200
     FM270400 11008KT P6SM FEW250=



000
FTUS45 KPSR 261500 AAA
TAFPHX
TAF AMD
KPHX 261506Z 2615/2712 10007KT P6SM FEW250
     FM262200 28006KT P6SM SCT200
     FM270500 10007KT P6SM FEW250=



000
FTUS45 KPSR 261100
TAFPHX
TAF
KPHX 261120Z 2612/2712 10007KT P6SM BKN250
     FM262200 28006KT P6SM FEW250
     FM270500 10007KT P6SM SCT250=



000
FTUS45 KPSR 261100
TAFIWA
TAF
KIWA 261120Z 2612/2712 12006KT P6SM BKN250
     FM262100 27007KT P6SM FEW250
     FM270400 12008KT P6SM SCT250
      AMD LTD TO CLD VIS AND WIND TIL 261300=



000
FTUS45 KPSR 261100
TAFIPL
TAF
KIPL 261120Z 2612/2712 VRB03KT P6SM SKC
     FM261800 11005KT P6SM FEW250
     FM270200 25004KT P6SM SCT250=



000
FTUS45 KPSR 261100
TAFBLH
TAF
KBLH 261120Z 2612/2712 VRB04KT P6SM FEW250
     FM262100 20005KT P6SM SCT250=



000
FTUS45 KPSR 261100
TAFIWA
TAF
KIWA 261120Z 2612/2712 12006KT P6SM BKN250
     FM262100 27007KT P6SM FEW250
     FM270400 12008KT P6SM SCT250
      AMD LTD TO CLD VIS AND WIND TIL 261300=



000
FTUS45 KPSR 261100
TAFIWA
TAF
KIWA 261120Z 2612/2712 12006KT P6SM BKN250
     FM262100 27007KT P6SM FEW250
     FM270400 12008KT P6SM SCT250
      AMD LTD TO CLD VIS AND WIND TIL 261300=



000
FTUS45 KPSR 261100
TAFIPL
TAF
KIPL 261120Z 2612/2712 VRB03KT P6SM SKC
     FM261800 11005KT P6SM FEW250
     FM270200 25004KT P6SM SCT250=



000
FTUS45 KPSR 261100
TAFBLH
TAF
KBLH 261120Z 2612/2712 VRB04KT P6SM FEW250
     FM262100 20005KT P6SM SCT250=



000
FTUS45 KPSR 260800 AAA
TAFPHX
TAF AMD
KPHX 260849Z 2609/2706 10008KT P6SM SCT250
     FM262200 28008KT P6SM BKN250
     FM270300 10007KT P6SM SCT250=



000
FTUS45 KPSR 260800 AAA
TAFPHX
TAF AMD
KPHX 260849Z 2609/2706 10008KT P6SM SCT250
     FM262200 28008KT P6SM BKN250
     FM270300 10007KT P6SM SCT250=



000
FTUS45 KPSR 260500
TAFIWA
TAF
KIWA 260521Z 2606/2706 12006KT P6SM FEW250
     FM262100 27008KT P6SM BKN250
     FM270300 12008KT P6SM SCT250
      AMD LTD TO CLD VIS AND WIND TIL 261300=



000
FTUS45 KPSR 260500
TAFPHX
TAF
KPHX 260521Z 2606/2706 10006KT P6SM FEW250
     FM262200 28008KT P6SM BKN250
     FM270300 10007KT P6SM SCT250=



000
FTUS45 KPSR 260500
TAFBLH
TAF
KBLH 260521Z 2606/2706 35005KT P6SM SKC
     FM260900 28004KT P6SM SKC
     FM261800 18005KT P6SM SKC=



000
FTUS45 KPSR 260500
TAFIWA
TAF
KIWA 260521Z 2606/2706 12006KT P6SM FEW250
     FM262100 27008KT P6SM BKN250
     FM270300 12008KT P6SM SCT250
      AMD LTD TO CLD VIS AND WIND TIL 261300=



000
FTUS45 KPSR 260200 AAA
TAFPHX
TAF AMD
KPHX 260234Z 2603/2624 10005KT P6SM FEW250
     FM262100 28008KT P6SM BKN250=



000
FTUS45 KPSR 260200 AAA
TAFPHX
TAF AMD
KPHX 260234Z 2603/2624 10005KT P6SM FEW250
     FM262100 28008KT P6SM BKN250=



000
FTUS45 KPSR 252300
TAFIWA
TAF
KIWA 252324Z 2600/2624 28010KT P6SM FEW080 FEW250
     FM260300 12006KT P6SM FEW150
     FM262100 27008KT P6SM BKN250
      AMD LTD TO CLD VIS AND WIND 2603/2613=



000
FTUS45 KPSR 252300
TAFIWA
TAF
KIWA 252324Z 2600/2624 28010KT P6SM FEW080 FEW250
     FM260300 12006KT P6SM FEW150
     FM262100 27008KT P6SM BKN250
      AMD LTD TO CLD VIS AND WIND 2603/2613=



000
FTUS45 KPSR 252300
TAFIWA
TAF
KIWA 252324Z 2600/2624 28010KT P6SM FEW080 FEW250
     FM260300 12006KT P6SM FEW150
     FM262100 27008KT P6SM BKN250
      AMD LTD TO CLD VIS AND WIND 2603/2613=



000
FTUS45 KPSR 252300
TAFIPL
TAF
KIPL 252324Z 2600/2624 25005KT P6SM SKC
     FM261500 VRB03KT P6SM SKC
     FM262100 11006KT P6SM SKC=



000
FTUS45 KPSR 252300
TAFPHX
TAF
KPHX 252324Z 2600/2624 28008KT P6SM FEW250
     FM260400 10005KT P6SM FEW150
     FM262100 28008KT P6SM BKN250=



000
FTUS45 KPSR 252300
TAFIWA
TAF
KIWA 252324Z 2600/2624 28010KT P6SM FEW080 FEW250
     FM260300 12006KT P6SM FEW150
     FM262100 27008KT P6SM BKN250
      AMD LTD TO CLD VIS AND WIND 2603/2613=



000
FTUS45 KPSR 252300
TAFIPL
TAF
KIPL 252324Z 2600/2624 25005KT P6SM SKC
     FM261500 VRB03KT P6SM SKC
     FM262100 11006KT P6SM SKC=



000
FTUS45 KPSR 252300
TAFBLH
TAF
KBLH 252324Z 2600/2624 35005KT P6SM SKC
     FM260600 28004KT P6SM SKC=



000
FTUS45 KPSR 252100 AAA
TAFPHX
TAF AMD
KPHX 252100Z 2521/2618 28008KT P6SM FEW250
     FM260400 10005KT P6SM FEW150=



    US Dept of Commerce
    National Oceanic and Atmospheric Administration
    National Weather Service
    1325 East West Highway
    Silver Spring, MD 20910
    Page Author: NWS Internet Services Team
Disclaimer
Information Quality
Credits
Glossary
Privacy Policy
Freedom of Information Act (FOIA)
About Us
Career Opportunities